Terminal Aerodrome Forecast
Issued by NWS

Home | Current Version | Previous Version | Graphics & Text | Print | Product List | Glossary On
Versions: 1 2 3 4 5 6 7 8 9 10 11 12 13 14 15
000
FTUS41 KCLE 130500
TAFFDY
TAF
KFDY 130539Z 1306/1406 19010KT P6SM VCSH BKN080
     FM130900 23010KT P6SM -SHRA BKN035
      TEMPO 1310/1313 26015KT 3SM -TSRA BR SCT015 OVC025CB
     FM131600 26012KT P6SM BKN030
     FM132300 27006KT P6SM VCSH BKN035=

USA.gov is the U.S. government's official web portal to all federal, state and local government web resources and services.